Friars Point, Mississippi
Current Conditions -  °F | °C
As of 6:15 PM on Friday 24 Oct 2014 (Local Time) from KCKM Reporting Station
Clear Clear  
Wind Chill: 68°   Ceiling: Unl
Heat Index: 68°   Visibility: 10mi
Dew Point: 55°   Wind: 3mph
Humidity: 64%   Direction: 240°WSW
Pressure: 30.09"   Gusts: NA
Location:  34.37°N, 90.64°W
Report Text: KCKM 242315Z AUTO 24003KT 10SM CLR 20/13 A3009 RMK AO1
Loading
Personal Weather Stations






























Interactive Weather Map
Tropical Storm Tracking
New forecast layout! Learn more

10-Day Weather Forecast

Advertisements
Track Severe Weather on mobile